createdAt,value
2018-06-29T00:02:05.729Z,92.70
2018-06-29T00:04:32.755Z,92.70
2018-06-29T00:06:59.720Z,92.80
2018-06-29T00:09:26.687Z,93.20
2018-06-29T00:11:53.637Z,92.80
2018-06-29T00:14:20.545Z,92.90
2018-06-29T00:16:47.676Z,92.80
2018-06-29T00:21:42.256Z,93.10
2018-06-29T00:24:09.613Z,93.20
2018-06-29T00:26:36.555Z,93.30
2018-06-29T00:29:03.924Z,93.10
2018-06-29T00:31:30.852Z,93.10
2018-06-29T00:33:57.776Z,93.00
2018-06-29T00:36:24.689Z,93.00
2018-06-29T00:38:51.572Z,93.10
2018-06-29T00:41:18.495Z,93.30
2018-06-29T00:43:45.388Z,93.50
2018-06-29T00:46:12.295Z,93.40
2018-06-29T00:48:39.197Z,93.20
2018-06-29T00:53:33.192Z,93.50
2018-06-29T00:56:00.245Z,93.40
2018-06-29T00:58:27.149Z,93.50
2018-06-29T01:00:54.056Z,93.40
2018-06-29T01:03:20.967Z,93.50
2018-06-29T01:05:47.878Z,93.30
2018-06-29T01:08:14.812Z,93.50
2018-06-29T01:10:41.824Z,93.60
2018-06-29T01:13:08.742Z,93.50
2018-06-29T01:15:35.661Z,93.60
2018-06-29T01:18:02.592Z,93.80
2018-06-29T01:20:29.496Z,94.30
2018-06-29T01:22:56.411Z,93.60
2018-06-29T01:25:23.332Z,94.00
2018-06-29T01:27:50.266Z,94.00
2018-06-29T01:30:17.172Z,94.00
2018-06-29T01:32:44.114Z,94.40
2018-06-29T01:35:11.060Z,94.20
2018-06-29T01:37:38.600Z,94.00
2018-06-29T01:40:05.839Z,94.50
2018-06-29T01:42:32.783Z,95.00
2018-06-29T01:45:00.324Z,94.70
2018-06-29T01:47:27.264Z,94.30
2018-06-29T01:49:54.184Z,94.50
2018-06-29T01:52:21.110Z,94.50
2018-06-29T01:54:48.043Z,94.60
2018-06-29T01:57:14.970Z,94.60
2018-06-29T01:59:41.860Z,94.50
2018-06-29T02:02:08.764Z,94.30
2018-06-29T02:04:35.676Z,93.50
2018-06-29T02:07:02.589Z,93.70
2018-06-29T02:09:29.529Z,93.90
2018-06-29T02:11:56.760Z,94.20
2018-06-29T02:14:23.679Z,94.10
2018-06-29T02:16:50.615Z,94.10
2018-06-29T02:19:17.542Z,94.10
2018-06-29T02:21:44.484Z,94.10
2018-06-29T02:24:11.400Z,94.00
2018-06-29T02:26:38.325Z,93.90
2018-06-29T02:29:05.256Z,93.70
2018-06-29T02:31:32.669Z,93.70
2018-06-29T02:33:59.584Z,93.60
2018-06-29T02:36:26.505Z,93.70
2018-06-29T02:38:53.455Z,93.80
2018-06-29T02:41:20.376Z,93.90
2018-06-29T02:43:47.292Z,94.00
2018-06-29T02:46:14.238Z,94.00
2018-06-29T02:48:41.144Z,94.10
2018-06-29T02:51:08.390Z,94.00
2018-06-29T02:53:35.276Z,94.00
2018-06-29T02:56:02.194Z,94.30
2018-06-29T02:58:29.105Z,94.30
2018-06-29T03:00:56.048Z,94.20
2018-06-29T03:03:22.989Z,94.40
2018-06-29T03:05:49.905Z,94.70
2018-06-29T03:08:17.105Z,94.50
2018-06-29T03:10:44.569Z,94.70
2018-06-29T03:13:11.460Z,94.60
2018-06-29T03:15:38.395Z,94.40
2018-06-29T03:18:05.305Z,94.50
2018-06-29T03:20:32.268Z,94.70
2018-06-29T03:22:59.320Z,94.90
2018-06-29T03:25:26.972Z,94.90
2018-06-29T03:27:53.907Z,94.90
2018-06-29T03:30:21.514Z,95.00
2018-06-29T03:32:48.495Z,94.90
2018-06-29T03:35:15.420Z,94.90
2018-06-29T03:37:42.312Z,94.50
2018-06-29T03:40:09.234Z,94.80
2018-06-29T03:42:36.512Z,94.80
2018-06-29T03:45:03.457Z,94.90
2018-06-29T03:47:30.382Z,94.70
2018-06-29T03:49:57.305Z,94.60
2018-06-29T03:52:24.228Z,94.70
2018-06-29T03:54:51.156Z,94.70
2018-06-29T03:57:18.610Z,94.70
2018-06-29T03:59:45.521Z,94.50
2018-06-29T04:02:12.463Z,94.30
2018-06-29T04:04:39.920Z,94.40
2018-06-29T04:07:06.852Z,94.70
2018-06-29T04:09:33.769Z,94.90
2018-06-29T04:12:00.695Z,95.00
2018-06-29T04:14:27.886Z,94.40
2018-06-29T04:16:54.808Z,94.80
2018-06-29T04:19:21.739Z,94.60
2018-06-29T04:21:48.681Z,94.40
2018-06-29T04:24:16.084Z,94.30
2018-06-29T04:26:43.614Z,94.50
2018-06-29T04:29:10.576Z,94.40
2018-06-29T04:31:37.494Z,94.40
2018-06-29T04:34:04.676Z,94.80
2018-06-29T04:36:32.155Z,94.80
2018-06-29T04:38:59.068Z,94.40
2018-06-29T04:41:26.006Z,94.60
2018-06-29T04:43:53.976Z,94.40
2018-06-29T04:46:20.888Z,95.00
2018-06-29T04:48:47.913Z,94.90
2018-06-29T04:51:14.856Z,95.10
2018-06-29T04:53:41.824Z,95.20
2018-06-29T04:56:09.770Z,94.60
2018-06-29T04:58:36.720Z,94.60
2018-06-29T05:01:03.817Z,94.70
2018-06-29T05:03:30.662Z,94.70
2018-06-29T05:05:57.606Z,95.00
2018-06-29T05:08:24.544Z,95.00
2018-06-29T05:10:51.694Z,94.60
2018-06-29T05:13:18.668Z,94.70
2018-06-29T05:15:45.605Z,94.60
2018-06-29T05:18:12.540Z,94.20
2018-06-29T05:20:40.252Z,94.50
2018-06-29T05:23:07.206Z,94.40
2018-06-29T05:25:34.343Z,94.80
2018-06-29T05:28:01.267Z,94.90
2018-06-29T05:30:28.178Z,95.30
2018-06-29T05:32:55.140Z,94.60
2018-06-29T05:35:22.072Z,94.70
2018-06-29T05:37:48.987Z,94.10
2018-06-29T05:40:15.912Z,94.90
2018-06-29T05:42:42.902Z,94.00
2018-06-29T05:45:09.828Z,94.70
2018-06-29T05:50:04.112Z,94.70
2018-06-29T05:52:31.571Z,95.00
2018-06-29T05:54:58.486Z,94.80
2018-06-29T05:57:25.415Z,94.80
2018-06-29T05:59:52.341Z,95.20
2018-06-29T06:02:19.860Z,94.80
2018-06-29T06:04:46.968Z,94.80
2018-06-29T06:07:13.903Z,94.80
2018-06-29T06:09:40.819Z,95.20
2018-06-29T06:12:08.052Z,94.30
2018-06-29T06:14:35.079Z,93.70
2018-06-29T06:17:02.001Z,93.60
2018-06-29T06:19:34.522Z,94.30
2018-06-29T06:22:02.002Z,94.10
2018-06-29T06:24:28.862Z,93.20
2018-06-29T06:26:56.029Z,92.60
2018-06-29T06:29:23.231Z,93.60
2018-06-29T06:34:17.056Z,92.20
2018-06-29T06:36:44.008Z,91.50
2018-06-29T06:39:11.840Z,91.70
2018-06-29T06:41:39.081Z,92.40
2018-06-29T06:44:06.064Z,92.50
2018-06-29T06:46:33.020Z,91.10
2018-06-29T06:48:59.999Z,91.10
2018-06-29T06:51:27.226Z,90.60
2018-06-29T06:53:54.175Z,91.70
2018-06-29T06:56:21.062Z,92.80
2018-06-29T06:58:47.967Z,88.10
2018-06-29T07:01:14.891Z,88.60
2018-06-29T07:03:41.818Z,88.90
2018-06-29T07:06:09.249Z,84.30
2018-06-29T07:08:36.176Z,85.20
2018-06-29T07:11:03.136Z,85.20
2018-06-29T07:13:30.061Z,87.00
2018-06-29T07:15:57.073Z,84.70
2018-06-29T07:18:24.000Z,79.70
2018-06-29T07:20:50.987Z,77.10
2018-06-29T07:23:18.093Z,77.30
2018-06-29T07:25:45.017Z,79.60
2018-06-29T07:28:11.953Z,78.70
2018-06-29T07:30:38.884Z,76.40
2018-06-29T07:33:05.790Z,76.00
2018-06-29T07:35:32.976Z,76.00
2018-06-29T07:38:00.590Z,71.90
2018-06-29T07:40:27.957Z,72.20
2018-06-29T07:42:54.980Z,73.20
2018-06-29T07:45:21.915Z,73.70
2018-06-29T07:47:50.092Z,76.70
2018-06-29T07:50:17.099Z,75.30
2018-06-29T07:52:44.080Z,72.00
2018-06-29T07:55:12.109Z,70.30
2018-06-29T07:57:39.068Z,70.30
2018-06-29T08:00:06.074Z,70.00
2018-06-29T08:02:33.904Z,68.50
2018-06-29T08:05:01.228Z,68.90
2018-06-29T08:07:28.847Z,68.60
2018-06-29T08:09:55.777Z,70.70
2018-06-29T08:12:22.937Z,71.60
2018-06-29T08:14:49.857Z,68.80
2018-06-29T08:17:17.126Z,68.10
2018-06-29T08:19:44.052Z,67.90
2018-06-29T08:22:11.094Z,65.40
2018-06-29T08:24:43.762Z,65.70
2018-06-29T08:27:11.951Z,64.30
2018-06-29T08:29:38.882Z,62.60
2018-06-29T08:34:32.687Z,62.20
2018-06-29T08:36:59.680Z,60.60
2018-06-29T08:39:26.609Z,60.90
2018-06-29T08:41:54.309Z,59.00
2018-06-29T08:44:21.295Z,59.50
2018-06-29T08:46:48.271Z,61.00
2018-06-29T08:49:15.186Z,62.90
2018-06-29T08:51:42.153Z,65.20
2018-06-29T08:54:09.107Z,64.00
2018-06-29T08:56:36.045Z,65.30
2018-06-29T08:59:02.996Z,65.40
2018-06-29T09:01:30.075Z,64.50
2018-06-29T09:03:57.611Z,65.20
2018-06-29T09:06:25.092Z,65.00
2018-06-29T09:08:52.021Z,63.90
2018-06-29T09:11:18.967Z,64.30
2018-06-29T09:13:45.930Z,65.40
2018-06-29T09:16:12.864Z,64.80
2018-06-29T09:18:39.823Z,64.90
2018-06-29T09:21:06.784Z,66.70
2018-06-29T09:23:33.711Z,68.00
2018-06-29T09:26:00.636Z,66.80
2018-06-29T09:28:27.644Z,65.30
2018-06-29T09:30:54.552Z,65.40
2018-06-29T09:33:21.512Z,64.60
2018-06-29T09:35:49.679Z,65.50
2018-06-29T09:38:16.848Z,65.20
2018-06-29T09:40:43.787Z,64.80
2018-06-29T09:43:10.801Z,63.10
2018-06-29T09:45:38.748Z,64.30
2018-06-29T09:48:05.813Z,64.10
2018-06-29T09:50:32.675Z,64.60
2018-06-29T09:53:00.269Z,65.90
2018-06-29T09:55:27.180Z,66.80
2018-06-29T09:57:55.402Z,63.30
2018-06-29T10:00:28.100Z,63.60
2018-06-29T10:02:55.630Z,63.70
2018-06-29T10:05:22.612Z,62.10
2018-06-29T10:07:49.584Z,62.10
2018-06-29T10:10:16.518Z,61.20
2018-06-29T10:12:43.474Z,61.20
2018-06-29T10:15:10.368Z,61.20
2018-06-29T10:17:37.324Z,60.50
2018-06-29T10:20:04.976Z,60.30
2018-06-29T10:22:31.842Z,59.20
2018-06-29T10:24:58.923Z,60.20
2018-06-29T10:27:27.094Z,58.50
2018-06-29T10:29:54.569Z,57.50
2018-06-29T10:32:21.498Z,57.40
2018-06-29T10:34:49.049Z,57.80
2018-06-29T10:37:15.970Z,58.30
2018-06-29T10:39:42.859Z,58.70
2018-06-29T10:42:09.774Z,59.00
2018-06-29T10:44:37.615Z,58.00
2018-06-29T10:47:04.506Z,57.90
2018-06-29T10:49:31.787Z,57.60
2018-06-29T10:51:58.713Z,56.50
2018-06-29T10:54:26.180Z,57.80
2018-06-29T10:56:53.110Z,57.60
2018-06-29T10:59:20.068Z,59.50
2018-06-29T11:01:46.984Z,56.10
2018-06-29T11:04:13.917Z,57.10
2018-06-29T11:06:40.864Z,57.00
2018-06-29T11:09:08.796Z,56.30
2018-06-29T11:14:02.696Z,55.90
2018-06-29T11:16:29.635Z,55.10
2018-06-29T11:18:56.573Z,55.50
2018-06-29T11:21:23.763Z,55.70
2018-06-29T11:23:50.979Z,56.30
2018-06-29T11:26:17.945Z,55.50
2018-06-29T11:28:44.920Z,55.00
2018-06-29T11:31:11.922Z,54.50
2018-06-29T11:33:38.964Z,53.90
2018-06-29T11:36:06.012Z,53.40
2018-06-29T11:38:33.000Z,55.20
2018-06-29T11:40:59.993Z,53.80
2018-06-29T11:43:27.043Z,54.10
2018-06-29T11:45:54.014Z,54.40
2018-06-29T11:48:21.488Z,55.00
2018-06-29T11:50:48.415Z,54.20
2018-06-29T11:53:15.432Z,55.00
2018-06-29T11:55:42.584Z,53.30
2018-06-29T11:58:09.562Z,54.10
2018-06-29T12:00:36.721Z,53.40
2018-06-29T12:03:03.676Z,53.10
2018-06-29T12:05:30.644Z,52.10
2018-06-29T12:07:57.561Z,52.30
2018-06-29T12:10:24.490Z,53.20
2018-06-29T12:12:51.500Z,54.30
2018-06-29T12:15:18.408Z,54.40
2018-06-29T12:17:45.852Z,54.20
2018-06-29T12:20:12.817Z,54.60
2018-06-29T12:22:39.749Z,53.70
2018-06-29T12:25:06.805Z,53.60
2018-06-29T12:27:33.807Z,53.30
2018-06-29T12:30:00.749Z,54.70
2018-06-29T12:32:27.695Z,54.50
2018-06-29T12:34:54.668Z,55.40
2018-06-29T12:37:21.619Z,54.90
2018-06-29T12:39:48.568Z,54.10
2018-06-29T12:42:15.571Z,54.00
2018-06-29T12:44:42.485Z,54.60
2018-06-29T12:47:09.524Z,54.80
2018-06-29T12:49:36.441Z,54.20
2018-06-29T12:52:03.393Z,55.10
2018-06-29T12:54:30.911Z,55.50
2018-06-29T12:56:57.829Z,54.40
2018-06-29T12:59:25.085Z,53.70
2018-06-29T13:01:52.040Z,52.00
2018-06-29T13:04:18.959Z,52.20
2018-06-29T13:09:19.671Z,53.30
2018-06-29T13:11:47.239Z,53.40
2018-06-29T13:14:15.158Z,52.60
2018-06-29T13:16:42.930Z,52.90
2018-06-29T13:19:09.874Z,51.90
2018-06-29T13:21:37.438Z,53.30
2018-06-29T13:24:04.344Z,53.60
2018-06-29T13:26:31.491Z,53.50
2018-06-29T13:28:58.407Z,52.90
2018-06-29T13:31:25.356Z,52.30
2018-06-29T13:33:52.367Z,52.30
2018-06-29T13:36:19.249Z,53.20
2018-06-29T13:38:46.215Z,52.20
2018-06-29T13:41:13.177Z,52.50
2018-06-29T13:43:40.136Z,53.50
2018-06-29T13:46:07.084Z,52.90
2018-06-29T13:48:34.041Z,50.90
2018-06-29T13:51:00.992Z,50.50
2018-06-29T13:55:54.792Z,51.20
2018-06-29T13:58:21.796Z,51.00
2018-06-29T14:00:49.243Z,50.40
2018-06-29T14:03:16.178Z,49.60
2018-06-29T14:05:43.117Z,49.50
2018-06-29T14:08:10.052Z,49.60
2018-06-29T14:10:36.990Z,49.30
2018-06-29T14:13:03.911Z,49.30
2018-06-29T14:15:31.347Z,50.80
2018-06-29T14:17:58.371Z,50.80
2018-06-29T14:20:25.283Z,51.50
2018-06-29T14:22:52.324Z,52.70
2018-06-29T14:25:19.253Z,53.20
2018-06-29T14:27:46.180Z,53.20
2018-06-29T14:30:13.092Z,53.00
2018-06-29T14:32:40.030Z,54.10
2018-06-29T14:35:07.123Z,54.70
2018-06-29T14:37:34.148Z,55.80
2018-06-29T14:40:01.093Z,56.60
2018-06-29T14:42:28.087Z,57.10
2018-06-29T14:44:55.083Z,57.30
2018-06-29T14:47:22.547Z,57.40
2018-06-29T14:49:49.536Z,57.30
2018-06-29T14:52:16.478Z,57.10
2018-06-29T14:54:43.468Z,57.20
2018-06-29T14:57:11.114Z,57.30
2018-06-29T14:59:38.444Z,57.40
2018-06-29T15:02:05.709Z,58.30
2018-06-29T15:04:32.660Z,59.60
2018-06-29T15:06:59.668Z,61.20
2018-06-29T15:09:26.676Z,62.80
2018-06-29T15:11:54.376Z,65.40
2018-06-29T15:14:21.395Z,66.70
2018-06-29T15:19:15.233Z,70.60
2018-06-29T15:21:42.234Z,70.90
2018-06-29T15:24:09.492Z,72.90
2018-06-29T15:26:36.612Z,74.50
2018-06-29T15:29:03.584Z,74.10
2018-06-29T15:31:30.642Z,73.60
2018-06-29T15:33:57.541Z,73.90
2018-06-29T15:36:24.477Z,73.90
2018-06-29T15:38:51.466Z,74.20
2018-06-29T15:41:18.453Z,73.40
2018-06-29T15:43:45.408Z,75.90
2018-06-29T15:46:12.360Z,76.60
2018-06-29T15:48:39.299Z,76.10
2018-06-29T15:51:06.251Z,77.10
2018-06-29T15:53:33.208Z,76.90
2018-06-29T15:56:00.191Z,77.70
2018-06-29T15:58:28.190Z,79.00
2018-06-29T16:00:55.137Z,78.10
2018-06-29T16:03:22.048Z,78.80
2018-06-29T16:05:49.009Z,79.60
2018-06-29T16:08:15.981Z,79.00
2018-06-29T16:10:42.916Z,79.10
2018-06-29T16:15:43.600Z,80.10
2018-06-29T16:18:10.529Z,79.70
2018-06-29T16:20:37.476Z,79.60
2018-06-29T16:23:04.437Z,79.70
2018-06-29T16:25:31.978Z,79.80
2018-06-29T16:27:59.047Z,78.30
2018-06-29T16:30:25.984Z,78.50
2018-06-29T16:32:52.905Z,79.00
2018-06-29T16:35:20.443Z,78.10
2018-06-29T16:37:47.395Z,78.50
2018-06-29T16:40:14.355Z,78.20
2018-06-29T16:42:41.292Z,78.00
2018-06-29T16:45:08.241Z,78.80
2018-06-29T16:47:36.153Z,77.80
2018-06-29T16:50:03.184Z,77.40
2018-06-29T16:52:30.424Z,78.40
2018-06-29T16:54:57.383Z,77.80
2018-06-29T16:57:24.315Z,78.60
2018-06-29T16:59:51.279Z,77.20
2018-06-29T17:02:18.206Z,76.90
2018-06-29T17:04:45.128Z,76.10
2018-06-29T17:07:13.016Z,76.70
2018-06-29T17:09:40.966Z,75.30
2018-06-29T17:12:08.128Z,74.60
2018-06-29T17:14:36.202Z,75.60
2018-06-29T17:17:03.304Z,76.70
2018-06-29T17:19:30.837Z,77.70
2018-06-29T17:21:57.801Z,77.60
2018-06-29T17:24:24.807Z,78.20
2018-06-29T17:26:52.443Z,79.00
2018-06-29T17:29:19.359Z,78.30
2018-06-29T17:31:46.900Z,78.20
2018-06-29T17:34:14.188Z,77.60
2018-06-29T17:36:41.160Z,78.00
2018-06-29T17:39:09.312Z,78.20
2018-06-29T17:41:36.530Z,78.80
2018-06-29T17:44:03.580Z,79.70
2018-06-29T17:46:30.530Z,79.40
2018-06-29T17:48:58.025Z,80.60
2018-06-29T17:51:24.988Z,79.40
2018-06-29T17:53:51.976Z,81.60
2018-06-29T17:56:19.014Z,81.20
2018-06-29T17:58:46.537Z,81.20
2018-06-29T18:01:13.477Z,81.50
2018-06-29T18:03:40.697Z,81.40
2018-06-29T18:06:07.674Z,82.00
2018-06-29T18:08:34.713Z,81.60
2018-06-29T18:20:47.852Z,81.70
2018-06-29T18:23:14.823Z,83.80
2018-06-29T18:25:42.089Z,83.40
2018-06-29T18:28:09.156Z,84.70
2018-06-29T18:30:36.979Z,85.10
2018-06-29T18:33:04.213Z,84.40
2018-06-29T18:35:31.972Z,84.20
2018-06-29T18:37:59.462Z,84.50
2018-06-29T18:40:27.650Z,84.40
2018-06-29T18:42:54.613Z,84.00
2018-06-29T18:45:21.592Z,84.70
2018-06-29T18:47:49.037Z,85.20
2018-06-29T18:50:16.013Z,84.90
2018-06-29T18:52:42.993Z,84.70
2018-06-29T18:55:11.170Z,85.10
2018-06-29T18:57:38.248Z,85.10
2018-06-29T19:00:05.469Z,85.20
2018-06-29T19:02:32.437Z,85.90
2018-06-29T19:07:26.256Z,86.40
2018-06-29T19:09:53.161Z,86.50
2018-06-29T19:12:20.168Z,86.00
2018-06-29T19:14:47.104Z,86.30
2018-06-29T19:17:14.041Z,86.20
2018-06-29T19:19:41.068Z,85.20
2018-06-29T19:22:08.013Z,86.60
2018-06-29T19:24:34.931Z,86.10
2018-06-29T19:27:01.884Z,85.90
2018-06-29T19:29:28.844Z,86.70
2018-06-29T19:31:55.818Z,86.40
2018-06-29T19:34:23.664Z,86.50
2018-06-29T19:36:51.823Z,86.20
2018-06-29T19:39:18.843Z,86.70
2018-06-29T19:41:45.846Z,86.80
2018-06-29T19:44:12.886Z,87.30
2018-06-29T19:46:39.996Z,87.30
2018-06-29T19:49:07.704Z,87.40
2018-06-29T19:51:35.288Z,87.20
2018-06-29T19:54:02.831Z,87.10
2018-06-29T19:56:29.840Z,87.30
2018-06-29T19:58:56.845Z,86.20
2018-06-29T20:01:23.776Z,86.20
2018-06-29T20:03:51.213Z,86.00
2018-06-29T20:06:19.314Z,86.40
2018-06-29T20:08:46.315Z,86.00
2018-06-29T20:11:13.583Z,86.40
2018-06-29T20:13:41.417Z,86.20
2018-06-29T20:16:08.415Z,86.00
2018-06-29T20:18:35.348Z,86.20
2018-06-29T20:21:02.556Z,85.80
2018-06-29T20:25:56.414Z,85.80
2018-06-29T20:28:23.944Z,86.10
2018-06-29T20:30:50.919Z,85.50
2018-06-29T20:33:18.744Z,85.00
2018-06-29T20:35:46.459Z,84.80
2018-06-29T20:38:13.712Z,84.80
2018-06-29T20:40:40.899Z,85.40
2018-06-29T20:43:07.888Z,85.60
2018-06-29T20:45:34.855Z,85.00
2018-06-29T20:48:01.804Z,84.60
2018-06-29T20:50:28.862Z,85.10
2018-06-29T20:52:55.821Z,85.40
2018-06-29T20:55:22.792Z,86.00
2018-06-29T20:57:49.768Z,86.00
2018-06-29T21:00:17.242Z,85.50
2018-06-29T21:02:44.190Z,85.90
2018-06-29T21:05:11.177Z,85.20
2018-06-29T21:07:38.133Z,85.20
2018-06-29T21:10:05.130Z,85.10
2018-06-29T21:12:33.029Z,85.20
2018-06-29T21:15:00.245Z,85.70
2018-06-29T21:17:27.201Z,85.60
2018-06-29T21:19:54.130Z,86.90
2018-06-29T21:22:21.062Z,86.50
2018-06-29T21:24:47.977Z,86.70
2018-06-29T21:27:14.953Z,86.40
2018-06-29T21:29:41.859Z,86.60
2018-06-29T21:32:08.872Z,86.70
2018-06-29T21:34:35.813Z,86.60
2018-06-29T21:37:03.421Z,86.20
2018-06-29T21:39:30.392Z,86.50
2018-06-29T21:41:57.364Z,86.20
2018-06-29T21:44:24.309Z,87.70
2018-06-29T21:49:18.680Z,86.60
2018-06-29T21:51:46.300Z,86.60
2018-06-29T21:54:13.742Z,86.50
2018-06-29T21:56:41.689Z,86.80
2018-06-29T21:59:08.632Z,87.40
2018-06-29T22:04:02.428Z,88.10
2018-06-29T22:06:29.361Z,88.00
2018-06-29T22:08:56.616Z,87.80
2018-06-29T22:11:24.545Z,87.90
2018-06-29T22:13:51.483Z,88.10
2018-06-29T22:16:18.477Z,87.70
2018-06-29T22:18:45.437Z,88.30
2018-06-29T22:21:12.410Z,88.00
2018-06-29T22:23:39.327Z,88.10
2018-06-29T22:26:06.368Z,88.20
2018-06-29T22:28:33.302Z,88.20
2018-06-29T22:31:00.268Z,88.90
2018-06-29T22:33:27.212Z,88.50
2018-06-29T22:35:54.149Z,88.60
2018-06-29T22:38:21.080Z,88.20
2018-06-29T22:40:48.056Z,88.90
2018-06-29T22:43:15.001Z,89.50
2018-06-29T22:45:41.946Z,90.00
2018-06-29T22:48:08.867Z,89.80
2018-06-29T22:50:35.828Z,89.10
2018-06-29T22:53:03.391Z,89.10
2018-06-29T22:55:30.322Z,89.20
2018-06-29T22:57:57.278Z,89.10
2018-06-29T23:00:24.944Z,88.80
2018-06-29T23:02:54.035Z,89.60
2018-06-29T23:05:21.100Z,88.90
2018-06-29T23:07:48.109Z,89.00
2018-06-29T23:10:15.082Z,88.90
2018-06-29T23:12:42.000Z,89.10
2018-06-29T23:15:09.471Z,88.70
2018-06-29T23:17:36.400Z,89.10
2018-06-29T23:20:03.371Z,89.20
2018-06-29T23:22:30.309Z,88.90
2018-06-29T23:24:57.251Z,90.00
2018-06-29T23:27:24.171Z,89.80
2018-06-29T23:29:51.099Z,90.00
2018-06-29T23:32:18.037Z,89.90
2018-06-29T23:34:45.037Z,89.80
2018-06-29T23:37:11.978Z,89.70
2018-06-29T23:39:39.088Z,89.60
2018-06-29T23:42:06.141Z,89.40
2018-06-29T23:44:33.125Z,90.20
2018-06-29T23:47:00.055Z,90.30
2018-06-29T23:49:26.999Z,90.10
2018-06-29T23:51:53.902Z,90.40
2018-06-29T23:54:20.853Z,90.20
2018-06-29T23:56:47.808Z,90.50
2018-06-29T23:59:14.728Z,90.30
